Thurman, Indiana
Current Conditions -  °F | °C
As of 10:54 AM on Thursday 18 Dec 2014 (Local Time) from KFWA Reporting Station
Light Snow Light Snow  
Wind Chill: -8°   Ceiling: 1900
Heat Index: -3°   Visibility: 9mi
Dew Point: -6°   Wind: 9mph
Humidity: 81%   Direction: 240°WSW
Pressure: 30.28"   Gusts: NA
Location:  41.0925°N, 84.9712°W
Report Text: KFWA 181554Z 24008KT 9SM -SN OVC019 M03/M06 A3028 RMK AO2 SLP265 P0000 T10281056
Loading
Personal Weather Stations






























Interactive Weather Map New forecast layout! Learn more

10-Day Weather Forecast

Advertisements
Track Severe Weather on mobile